Time;durP1;ratioP1;P1;durP2;ratioP2;P2;SDS_P1;SDS_P2;PMS_P1;PMS_P2;Temp;Humidity;BMP_temperature;BMP_pressure;BME280_temperature;BME280_humidity;BME280_pressure;Samples;Min_cycle;Max_cycle;Signal;HPM_P1;HPM_P2
2020/12/19 00:01:51;;;;;;;16.80;10.65;;;;;;;7.81;100.00;99629.88;5035697;28;20191;-68
2020/12/19 00:04:17;;;;;;;22.10;11.63;;;;;;;7.89;100.00;99619.69;5035137;28;20186;-68
2020/12/19 00:06:43;;;;;;;17.40;11.35;;;;;;;7.88;100.00;99619.75;5035699;28;20207;-68
2020/12/19 00:09:10;;;;;;;17.48;11.05;;;;;;;7.88;100.00;99620.63;5035464;28;20212;-68
2020/12/19 00:11:36;;;;;;;23.25;12.45;;;;;;;7.82;100.00;99618.22;5035142;28;20586;-68
2020/12/19 00:14:03;;;;;;;15.38;10.82;;;;;;;7.80;100.00;99608.50;5035164;28;20778;-68
2020/12/19 00:16:29;;;;;;;16.90;10.70;;;;;;;7.76;100.00;99606.94;5035612;28;20190;-68
2020/12/19 00:18:56;;;;;;;18.13;11.40;;;;;;;7.73;100.00;99608.81;5034993;28;20190;-68
2020/12/19 00:21:22;;;;;;;20.30;11.80;;;;;;;7.65;100.00;99600.25;5034965;28;20210;-69
2020/12/19 00:23:48;;;;;;;15.32;9.43;;;;;;;7.68;100.00;99608.13;5035236;28;20257;-68
2020/12/19 00:26:15;;;;;;;17.30;10.70;;;;;;;7.71;100.00;99602.66;5035428;28;20207;-69
2020/12/19 00:28:41;;;;;;;19.60;11.77;;;;;;;7.87;100.00;99599.25;5034702;28;20194;-68
2020/12/19 00:31:08;;;;;;;20.90;11.80;;;;;;;7.79;100.00;99596.06;5034976;28;20210;-68
2020/12/19 00:33:34;;;;;;;15.52;10.20;;;;;;;7.87;100.00;99597.44;5034922;28;20325;-68
2020/12/19 00:36:00;;;;;;;22.25;12.00;;;;;;;7.88;100.00;99593.81;5034654;28;20216;-68
2020/12/19 00:38:26;;;;;;;16.92;12.65;;;;;;;8.01;100.00;99595.94;5034895;28;20198;-70
2020/12/19 00:40:52;;;;;;;17.77;12.00;;;;;;;7.95;100.00;99591.72;5034839;28;20225;-68
2020/12/19 00:43:19;;;;;;;22.67;12.48;;;;;;;7.88;99.62;99590.25;5034236;28;20194;-69
2020/12/19 00:45:45;;;;;;;19.40;11.95;;;;;;;7.89;99.55;99584.84;5034880;28;20599;-69
2020/12/19 00:48:12;;;;;;;23.42;13.25;;;;;;;7.90;99.14;99583.88;5034599;28;20183;-69
2020/12/19 00:50:38;;;;;;;23.02;14.02;;;;;;;7.89;99.00;99576.81;5034689;28;20190;-69
2020/12/19 00:53:04;;;;;;;19.92;13.43;;;;;;;7.79;98.91;99575.47;5034398;28;20226;-69
2020/12/19 00:55:30;;;;;;;22.15;13.60;;;;;;;7.78;99.12;99576.44;5034776;28;20564;-69
2020/12/19 00:57:56;;;;;;;21.08;13.20;;;;;;;7.67;99.87;99562.66;5033720;28;20198;-68
2020/12/19 01:00:22;;;;;;;23.42;13.30;;;;;;;7.69;100.00;99568.81;5034064;28;20694;-69
2020/12/19 01:02:48;;;;;;;20.63;12.23;;;;;;;7.79;100.00;99572.78;5034278;28;20182;-68
2020/12/19 01:05:15;;;;;;;21.42;14.32;;;;;;;7.84;99.33;99568.06;5034430;28;20548;-69
2020/12/19 01:07:41;;;;;;;21.13;12.50;;;;;;;7.85;98.73;99556.44;5034366;28;20255;-69
2020/12/19 01:10:09;;;;;;;20.58;11.95;;;;;;;7.78;98.95;99554.09;5034348;28;20662;-68
2020/12/19 01:12:35;;;;;;;21.13;13.15;;;;;;;7.68;99.65;99551.84;5033843;28;20277;-68
2020/12/19 01:15:01;;;;;;;20.38;13.02;;;;;;;7.79;99.54;99558.53;5033988;28;20708;-68
2020/12/19 01:17:28;;;;;;;23.88;12.77;;;;;;;7.71;99.27;99559.78;5034222;28;20192;-68
2020/12/19 01:19:54;;;;;;;20.60;11.82;;;;;;;7.92;98.85;99559.69;5034042;28;20191;-68
2020/12/19 01:22:21;;;;;;;18.38;11.13;;;;;;;7.81;98.39;99557.50;5033462;28;20209;-68
2020/12/19 01:24:47;;;;;;;21.83;12.77;;;;;;;7.88;98.86;99568.81;5034216;28;20186;-68
2020/12/19 01:27:13;;;;;;;20.88;12.55;;;;;;;7.82;98.22;99553.88;5033900;28;20723;-69
2020/12/19 01:29:39;;;;;;;17.73;11.50;;;;;;;7.76;98.64;99553.31;5033875;28;20190;-68
2020/12/19 01:32:05;;;;;;;21.98;13.10;;;;;;;7.79;98.88;99556.72;5033626;28;20189;-69
2020/12/19 01:34:31;;;;;;;21.27;11.85;;;;;;;7.82;98.79;99553.00;5033344;28;20268;-68
2020/12/19 01:36:57;;;;;;;17.15;10.60;;;;;;;8.09;98.32;99558.88;5033623;28;20194;-68
2020/12/19 01:39:25;;;;;;;20.10;13.13;;;;;;;8.11;96.93;99546.25;5033818;28;20202;-68
2020/12/19 01:41:52;;;;;;;18.33;11.60;;;;;;;8.05;96.79;99550.13;5033801;28;20617;-68
2020/12/19 01:44:18;;;;;;;18.98;11.13;;;;;;;7.78;97.81;99546.94;5033166;28;20588;-68
2020/12/19 01:46:54;;;;;;;15.93;9.70;;;;;;;7.90;98.58;99548.16;5033440;28;20695;-68
2020/12/19 01:49:21;;;;;;;16.13;10.23;;;;;;;7.99;97.47;99547.72;5013922;28;20206;-68
2020/12/19 01:51:50;;;;;;;20.30;10.30;;;;;;;8.06;97.85;99546.47;5013301;28;20187;-69
2020/12/19 01:54:17;;;;;;;17.02;10.55;;;;;;;8.20;96.02;99534.22;5013709;28;20253;-68
2020/12/19 01:56:50;;;;;;;18.45;11.70;;;;;;;8.13;96.31;99537.19;5026497;28;20220;-68
2020/12/19 01:59:17;;;;;;;17.30;10.80;;;;;;;8.09;96.54;99529.38;5032907;28;20320;-69
2020/12/19 02:01:44;;;;;;;18.92;12.07;;;;;;;8.04;96.28;99532.28;5033316;28;20540;-69
2020/12/19 02:04:11;;;;;;;21.08;10.48;;;;;;;8.03;96.62;99527.00;5032884;28;20179;-68
2020/12/19 02:06:38;;;;;;;16.63;10.63;;;;;;;8.13;96.80;99526.44;5033246;28;20212;-68
2020/12/19 02:09:04;;;;;;;16.52;11.68;;;;;;;8.21;96.12;99531.47;5032652;28;20277;-68
2020/12/19 02:11:30;;;;;;;16.50;10.20;;;;;;;8.02;95.88;99526.13;5032883;28;20620;-68
2020/12/19 02:13:57;;;;;;;18.95;10.80;;;;;;;7.93;96.87;99526.56;5032156;28;20317;-69
2020/12/19 02:16:24;;;;;;;16.42;10.23;;;;;;;7.96;97.48;99517.50;5032970;28;20595;-68
2020/12/19 02:18:50;;;;;;;12.70;9.45;;;;;;;7.96;97.33;99522.84;5032288;28;20194;-68
2020/12/19 02:21:16;;;;;;;16.58;9.43;;;;;;;7.78;98.39;99521.94;5033034;28;20222;-69
2020/12/19 02:23:43;;;;;;;15.68;9.40;;;;;;;7.71;99.60;99516.00;5033120;28;20269;-68
2020/12/19 02:26:09;;;;;;;21.48;10.23;;;;;;;7.56;100.00;99509.56;5032701;28;20252;-68
2020/12/19 02:28:35;;;;;;;13.65;9.45;;;;;;;7.68;100.00;99513.47;5032870;28;20186;-68
2020/12/19 02:31:01;;;;;;;12.88;9.05;;;;;;;7.68;100.00;99511.66;5032706;28;20204;-68
2020/12/19 02:33:27;;;;;;;15.68;9.07;;;;;;;7.71;100.00;99505.28;5032253;28;20202;-68
2020/12/19 02:35:53;;;;;;;24.77;10.02;;;;;;;7.79;100.00;99500.44;5032609;28;20281;-68
2020/12/19 02:38:20;;;;;;;17.90;8.23;;;;;;;8.01;100.00;99497.56;5032714;28;20716;-68
2020/12/19 02:40:47;;;;;;;16.40;9.77;;;;;;;8.05;100.00;99491.13;5032143;28;20193;-68
2020/12/19 02:43:13;;;;;;;11.75;8.85;;;;;;;7.96;99.48;99485.31;5032330;28;20521;-68
2020/12/19 02:45:39;;;;;;;14.80;8.90;;;;;;;8.04;99.41;99486.69;5032491;28;20232;-68
2020/12/19 02:48:05;;;;;;;15.50;9.70;;;;;;;8.03;99.15;99493.00;5032237;28;20198;-68
2020/12/19 02:50:31;;;;;;;10.45;7.55;;;;;;;8.01;99.22;99483.31;5032513;28;20186;-69
2020/12/19 02:52:57;;;;;;;17.27;8.93;;;;;;;7.91;99.60;99488.22;5032248;28;20737;-67
2020/12/19 02:55:23;;;;;;;19.17;8.85;;;;;;;7.85;100.00;99493.91;5031955;28;20202;-68
2020/12/19 02:57:50;;;;;;;13.77;8.20;;;;;;;7.84;100.00;99487.66;5032648;28;20622;-68
2020/12/19 03:00:16;;;;;;;14.48;8.82;;;;;;;7.86;100.00;99488.47;5031686;28;20646;-68
2020/12/19 03:02:42;;;;;;;14.63;8.65;;;;;;;7.87;100.00;99492.03;5031869;28;20608;-68
2020/12/19 03:05:08;;;;;;;16.63;9.63;;;;;;;7.80;100.00;99487.88;5032543;28;20281;-68
2020/12/19 03:07:34;;;;;;;14.75;8.88;;;;;;;7.89;100.00;99487.44;5032411;28;20182;-68
2020/12/19 03:10:01;;;;;;;15.85;9.93;;;;;;;8.00;100.00;99486.91;5031972;28;20203;-68
2020/12/19 03:12:27;;;;;;;11.48;8.35;;;;;;;8.03;99.76;99479.59;5031694;28;20285;-68
2020/12/19 03:14:54;;;;;;;17.17;7.53;;;;;;;8.25;98.61;99482.06;5031954;28;20210;-68
2020/12/19 03:17:20;;;;;;;12.23;8.30;;;;;;;8.17;98.52;99478.91;5031788;28;20202;-69
2020/12/19 03:19:46;;;;;;;12.68;7.97;;;;;;;8.27;98.67;99479.31;5032793;28;20190;-67
2020/12/19 03:22:12;;;;;;;11.60;8.40;;;;;;;8.23;98.07;99480.41;5038024;28;20205;-67
2020/12/19 03:24:38;;;;;;;15.10;8.23;;;;;;;8.18;98.09;99475.25;5038579;28;20713;-68
2020/12/19 03:27:04;;;;;;;13.50;7.55;;;;;;;8.15;98.13;99481.66;5038204;28;20188;-69
2020/12/19 03:29:30;;;;;;;13.68;8.32;;;;;;;8.08;98.33;99480.22;5038438;28;20562;-69
2020/12/19 03:31:57;;;;;;;13.15;7.80;;;;;;;8.01;98.58;99457.34;5038747;28;20192;-68
2020/12/19 03:34:23;;;;;;;12.60;7.75;;;;;;;7.92;99.25;99469.41;5038008;28;20296;-68
2020/12/19 03:36:49;;;;;;;13.27;7.22;;;;;;;7.89;99.94;99456.16;5038471;28;20673;-69
2020/12/19 03:39:15;;;;;;;13.65;7.70;;;;;;;7.80;100.00;99458.41;5038644;28;20269;-69
2020/12/19 03:41:41;;;;;;;12.20;7.70;;;;;;;7.87;100.00;99465.22;5038464;28;20638;-69
2020/12/19 03:44:07;;;;;;;15.30;8.20;;;;;;;7.81;100.00;99457.47;5038464;28;20194;-68
2020/12/19 03:46:34;;;;;;;10.38;7.57;;;;;;;7.79;100.00;99462.03;5038333;28;20190;-68
2020/12/19 03:49:00;;;;;;;13.88;7.68;;;;;;;7.71;100.00;99454.34;5038153;28;20184;-68
2020/12/19 03:51:27;;;;;;;15.32;8.70;;;;;;;7.73;100.00;99461.41;5037844;28;20202;-68
2020/12/19 03:53:53;;;;;;;13.02;8.20;;;;;;;7.76;100.00;99452.34;5038185;28;20655;-68
2020/12/19 03:56:19;;;;;;;10.93;6.40;;;;;;;7.79;100.00;99462.91;5037968;28;20337;-69
2020/12/19 03:58:45;;;;;;;11.38;7.15;;;;;;;7.66;100.00;99453.72;5038058;28;20247;-69
2020/12/19 04:01:11;;;;;;;13.85;8.75;;;;;;;7.65;100.00;99450.19;5038286;28;20643;-69
2020/12/19 04:03:37;;;;;;;11.63;7.97;;;;;;;7.53;100.00;99456.13;5037589;28;20209;-68
2020/12/19 04:06:04;;;;;;;10.15;7.20;;;;;;;7.45;100.00;99463.66;5038285;28;20742;-69
2020/12/19 04:08:30;;;;;;;11.95;8.10;;;;;;;7.42;100.00;99458.47;5037970;28;20208;-69
2020/12/19 04:10:57;;;;;;;12.27;7.80;;;;;;;7.23;100.00;99447.72;5037971;28;20238;-68
2020/12/19 04:13:23;;;;;;;9.65;7.50;;;;;;;7.13;100.00;99458.00;5038287;28;20395;-68
2020/12/19 04:15:49;;;;;;;13.88;8.25;;;;;;;7.04;100.00;99453.06;5038423;28;21017;-69
2020/12/19 04:18:15;;;;;;;14.98;8.05;;;;;;;6.96;100.00;99457.91;5037757;28;20190;-68
2020/12/19 04:20:41;;;;;;;13.57;7.32;;;;;;;6.91;100.00;99460.78;5038043;28;20612;-68
2020/12/19 04:23:08;;;;;;;10.48;7.18;;;;;;;6.82;100.00;99458.53;5037607;28;20201;-68
2020/12/19 04:25:34;;;;;;;12.45;8.10;;;;;;;6.89;100.00;99455.50;5038008;28;20182;-69
2020/12/19 04:28:00;;;;;;;13.38;8.05;;;;;;;6.85;100.00;99451.25;5037915;28;20193;-68
2020/12/19 04:30:26;;;;;;;14.45;7.60;;;;;;;6.86;100.00;99454.78;5037466;28;20295;-68
2020/12/19 04:32:53;;;;;;;12.13;7.55;;;;;;;7.00;100.00;99451.47;5033350;28;20182;-68
2020/12/19 04:35:19;;;;;;;12.23;7.40;;;;;;;7.12;100.00;99445.53;5034919;28;20657;-69
2020/12/19 04:37:45;;;;;;;11.68;7.55;;;;;;;7.03;100.00;99440.63;5034769;28;20674;-69
2020/12/19 04:40:12;;;;;;;10.43;7.40;;;;;;;7.03;100.00;99445.97;5034405;28;20193;-69
2020/12/19 04:42:38;;;;;;;13.50;6.20;;;;;;;7.01;100.00;99437.13;5034355;28;20198;-69
2020/12/19 04:45:05;;;;;;;12.65;7.47;;;;;;;6.79;100.00;99445.28;5034190;28;20197;-69
2020/12/19 04:47:32;;;;;;;11.32;7.03;;;;;;;6.87;100.00;99445.81;5034295;28;20184;-69
2020/12/19 04:49:59;;;;;;;11.52;7.22;;;;;;;6.80;100.00;99449.69;5034223;28;20193;-68
2020/12/19 04:52:25;;;;;;;8.57;6.53;;;;;;;6.64;100.00;99449.50;5034472;28;20558;-68
2020/12/19 04:54:52;;;;;;;10.85;7.93;;;;;;;6.50;100.00;99449.25;5034458;28;20300;-68
2020/12/19 04:57:19;;;;;;;12.27;7.20;;;;;;;6.40;100.00;99451.44;5034534;28;20656;-68
2020/12/19 04:59:46;;;;;;;10.05;7.80;;;;;;;6.59;100.00;99452.38;5033968;28;20238;-68
2020/12/19 05:02:12;;;;;;;13.68;8.35;;;;;;;6.59;100.00;99448.84;5033885;28;20256;-69
2020/12/19 05:04:39;;;;;;;9.43;6.72;;;;;;;6.58;100.00;99450.66;5034322;28;20201;-68
2020/12/19 05:07:07;;;;;;;10.85;7.25;;;;;;;6.50;100.00;99446.59;5034308;28;20544;-68
2020/12/19 05:09:36;;;;;;;14.20;8.23;;;;;;;6.39;100.00;99453.25;5034368;28;20241;-68
2020/12/19 05:12:03;;;;;;;11.18;7.47;;;;;;;6.44;100.00;99448.59;5034109;28;20209;-68
2020/12/19 05:14:31;;;;;;;14.50;7.47;;;;;;;6.38;100.00;99448.84;5034004;28;20206;-68
2020/12/19 05:16:58;;;;;;;10.20;7.65;;;;;;;6.33;100.00;99445.53;5034188;28;20218;-68
2020/12/19 05:19:27;;;;;;;14.52;8.43;;;;;;;6.32;100.00;99449.13;5034123;28;20186;-68
2020/12/19 05:21:54;;;;;;;13.95;8.45;;;;;;;6.26;100.00;99446.69;5034028;28;20190;-69
2020/12/19 05:24:27;;;;;;;12.77;7.80;;;;;;;6.26;100.00;99436.91;5033929;28;20598;-69
2020/12/19 05:26:53;;;;;;;9.43;6.70;;;;;;;6.24;100.00;99436.09;5034113;28;20193;-68
2020/12/19 05:29:20;;;;;;;8.82;6.20;;;;;;;6.23;100.00;99434.34;5033689;28;20186;-68
2020/12/19 05:31:54;;;;;;;13.07;7.22;;;;;;;6.24;100.00;99440.53;5033345;28;20198;-68
2020/12/19 05:34:21;;;;;;;17.45;7.80;;;;;;;6.29;100.00;99435.88;5030939;28;20210;-68
2020/12/19 05:36:49;;;;;;;14.95;8.40;;;;;;;6.36;100.00;99437.34;5033657;28;20240;-68
2020/12/19 05:39:15;;;;;;;13.77;7.55;;;;;;;6.34;100.00;99438.38;5033093;28;20252;-69
2020/12/19 05:41:41;;;;;;;12.90;6.78;;;;;;;6.36;100.00;99433.81;5033275;28;20197;-68
2020/12/19 05:44:07;;;;;;;11.40;7.35;;;;;;;6.35;100.00;99440.94;5033175;28;20220;-68
2020/12/19 05:46:35;;;;;;;11.93;7.35;;;;;;;6.31;100.00;99427.78;5033573;28;20198;-68
2020/12/19 05:49:04;;;;;;;13.82;8.60;;;;;;;6.33;100.00;99431.25;5033390;28;20196;-68
2020/12/19 05:51:32;;;;;;;10.55;6.55;;;;;;;6.30;100.00;99437.63;5033197;28;20276;-69
2020/12/19 05:54:01;;;;;;;9.90;7.35;;;;;;;6.16;100.00;99438.22;5032882;28;20221;-68
2020/12/19 05:56:28;;;;;;;13.88;8.77;;;;;;;6.21;100.00;99436.19;5033117;28;20636;-68
2020/12/19 05:58:55;;;;;;;10.57;6.80;;;;;;;6.31;100.00;99442.03;5033053;28;20694;-68
2020/12/19 06:01:22;;;;;;;12.48;7.00;;;;;;;6.46;100.00;99441.34;5032415;28;20206;-68
2020/12/19 06:03:50;;;;;;;12.70;6.78;;;;;;;6.67;100.00;99449.38;5032798;28;20233;-69
2020/12/19 06:06:17;;;;;;;11.35;6.35;;;;;;;6.71;99.60;99445.63;5033114;28;20675;-68
2020/12/19 06:08:44;;;;;;;7.68;5.80;;;;;;;6.61;99.61;99444.31;5033240;28;20251;-68
2020/12/19 06:11:16;;;;;;;7.28;5.75;;;;;;;6.76;99.88;99446.31;5032771;28;20269;-68
2020/12/19 06:13:49;;;;;;;12.15;6.55;;;;;;;7.03;99.16;99440.63;5033006;28;20297;-68
2020/12/19 06:16:17;;;;;;;9.38;6.18;;;;;;;7.05;98.16;99447.63;5032909;28;20539;-69
2020/12/19 06:19:07;;;;;;;9.15;6.18;;;;;;;7.22;97.16;99444.19;5032852;28;20186;-69
2020/12/19 06:21:35;;;;;;;9.90;6.15;;;;;;;7.13;96.86;99443.75;5032897;28;20193;-69
2020/12/19 06:24:01;;;;;;;9.45;5.40;;;;;;;7.22;96.95;99438.84;5032647;28;20567;-69
2020/12/19 06:26:37;;;;;;;8.30;5.57;;;;;;;7.22;96.96;99446.00;5032838;28;20196;-69
2020/12/19 06:29:05;;;;;;;14.52;5.07;;;;;;;7.32;97.22;99441.94;5032932;28;20182;-69
2020/12/19 06:31:31;;;;;;;10.90;7.30;;;;;;;7.34;96.82;99447.22;5032570;28;20205;-69
2020/12/19 06:34:03;;;;;;;13.65;6.50;;;;;;;7.38;96.67;99441.66;5032138;28;20293;-68
2020/12/19 06:36:30;;;;;;;9.73;5.72;;;;;;;7.49;96.14;99441.16;5031712;28;20199;-68
2020/12/19 06:39:08;;;;;;;13.38;6.25;;;;;;;7.52;95.37;99443.66;5032616;28;20324;-69
2020/12/19 06:41:42;;;;;;;6.75;6.03;;;;;;;7.43;95.80;99450.31;5032477;28;20205;-69
2020/12/19 06:44:10;;;;;;;8.23;5.80;;;;;;;7.44;96.35;99452.09;5032107;28;20642;-68
2020/12/19 06:46:37;;;;;;;5.57;5.05;;;;;;;7.54;96.24;99452.50;5032091;28;20277;-69
2020/12/19 06:49:28;;;;;;;7.32;4.35;;;;;;;7.55;95.86;99443.50;5032303;28;20197;-68
2020/12/19 06:51:58;;;;;;;8.75;5.22;;;;;;;7.54;95.56;99447.16;5032330;28;20537;-68
2020/12/19 06:54:28;;;;;;;8.10;5.65;;;;;;;7.41;96.14;99446.84;5032709;28;20206;-69
2020/12/19 06:56:54;;;;;;;8.90;6.10;;;;;;;7.40;96.76;99453.16;5051770;28;20201;-70
2020/12/19 06:59:22;;;;;;;10.18;5.85;;;;;;;7.35;96.68;99454.31;5042841;28;20225;-68
2020/12/19 07:01:49;;;;;;;8.15;4.90;;;;;;;7.35;96.90;99454.31;5031887;28;20192;-68
2020/12/19 07:04:33;;;;;;;6.60;4.50;;;;;;;7.33;96.93;99454.41;5032039;28;20190;-68
2020/12/19 07:07:04;;;;;;;7.00;5.05;;;;;;;7.35;96.61;99456.97;5032275;28;20244;-69
2020/12/19 07:09:32;;;;;;;7.10;4.72;;;;;;;7.28;96.81;99451.03;5031817;28;20186;-69
2020/12/19 07:11:58;;;;;;;6.38;4.50;;;;;;;7.35;96.82;99459.66;5031915;28;20198;-68
2020/12/19 07:14:25;;;;;;;9.25;4.85;;;;;;;7.38;96.61;99456.88;5031596;28;20205;-69
2020/12/19 07:16:52;;;;;;;7.05;4.22;;;;;;;7.52;96.09;99460.59;5031779;28;20569;-69
2020/12/19 07:19:23;;;;;;;8.98;5.07;;;;;;;7.60;95.05;99454.00;5031811;28;20254;-68
2020/12/19 07:21:51;;;;;;;6.95;4.88;;;;;;;7.62;94.45;99461.06;5031682;28;20192;-67
2020/12/19 07:24:17;;;;;;;6.47;4.30;;;;;;;7.55;94.68;99461.41;5031684;28;20547;-68
2020/12/19 07:26:44;;;;;;;5.78;4.25;;;;;;;7.67;94.60;99450.97;5031361;28;20198;-68
2020/12/19 07:29:19;;;;;;;7.10;4.57;;;;;;;7.69;94.04;99458.94;5031817;28;20244;-68
2020/12/19 07:31:48;;;;;;;7.85;5.03;;;;;;;7.70;94.16;99458.84;5031563;28;20244;-67
2020/12/19 07:34:15;;;;;;;6.85;4.82;;;;;;;7.78;94.08;99461.19;5030678;28;20209;-67
2020/12/19 07:36:45;;;;;;;9.88;4.80;;;;;;;7.86;93.72;99464.31;5031493;28;20276;-68
2020/12/19 07:39:12;;;;;;;5.97;4.03;;;;;;;7.87;93.19;99463.41;5031691;28;20192;-67
2020/12/19 07:41:39;;;;;;;5.72;4.13;;;;;;;7.97;92.78;99460.25;5031832;28;20277;-68
2020/12/19 07:44:11;;;;;;;6.50;4.07;;;;;;;7.96;92.92;99466.56;5032059;28;20193;-67
2020/12/19 07:46:47;;;;;;;5.38;4.22;;;;;;;8.21;91.97;99467.09;5031649;28;20264;-67
2020/12/19 07:49:23;;;;;;;7.38;4.45;;;;;;;8.06;91.40;99475.91;5031297;28;20193;-67
2020/12/19 07:51:49;;;;;;;5.50;3.83;;;;;;;8.00;92.00;99471.69;5031797;28;20209;-69
2020/12/19 07:54:16;;;;;;;5.72;4.38;;;;;;;7.94;92.29;99480.91;5031380;28;20226;-68
2020/12/19 07:56:43;;;;;;;6.22;3.92;;;;;;;7.95;92.29;99473.75;5031300;28;20308;-67
2020/12/19 07:59:11;;;;;;;6.78;3.47;;;;;;;7.92;92.46;99479.25;5031642;28;20317;-68
2020/12/19 08:01:39;;;;;;;5.43;3.67;;;;;;;7.87;92.70;99473.25;5031190;28;20285;-68
2020/12/19 08:04:05;;;;;;;6.70;3.55;;;;;;;7.84;92.93;99476.06;5031610;28;20200;-68
2020/12/19 08:06:41;;;;;;;4.43;4.03;;;;;;;7.94;92.86;99478.25;5032462;28;20202;-67
2020/12/19 08:09:07;;;;;;;6.50;3.85;;;;;;;7.92;92.34;99481.94;5035254;28;20186;-68
2020/12/19 08:11:43;;;;;;;7.00;4.05;;;;;;;7.97;92.50;99479.03;5034804;28;20186;-68
2020/12/19 08:14:10;;;;;;;7.93;4.30;;;;;;;7.92;92.38;99480.13;5035320;28;20627;-68
2020/12/19 08:16:37;;;;;;;6.05;4.35;;;;;;;8.01;91.97;99478.81;5035152;28;20532;-68
2020/12/19 08:19:03;;;;;;;8.95;4.13;;;;;;;8.04;91.84;99484.00;5034722;28;20189;-68
2020/12/19 08:21:30;;;;;;;5.70;3.85;;;;;;;7.98;91.88;99486.13;5035066;28;20182;-68
2020/12/19 08:23:56;;;;;;;6.82;4.07;;;;;;;7.94;92.20;99480.91;5035073;28;20683;-68
2020/12/19 08:26:22;;;;;;;4.80;3.28;;;;;;;8.00;91.85;99487.78;5034763;28;20182;-67
2020/12/19 08:29:04;;;;;;;4.80;3.20;;;;;;;8.02;91.79;99485.88;5034302;28;20225;-68
2020/12/19 08:31:33;;;;;;;4.30;3.55;;;;;;;8.06;91.36;99481.25;5034854;28;20534;-67
2020/12/19 08:34:03;;;;;;;5.72;3.80;;;;;;;8.09;91.44;99481.09;5034502;28;20293;-67
2020/12/19 08:36:29;;;;;;;7.05;4.43;;;;;;;8.03;91.47;99482.28;5034345;28;20190;-68
2020/12/19 08:39:14;;;;;;;6.43;3.60;;;;;;;8.10;91.24;99481.03;5034287;28;20201;-68
2020/12/19 08:41:40;;;;;;;9.50;4.65;;;;;;;8.14;91.33;99473.72;5034837;28;20273;-67
2020/12/19 08:44:06;;;;;;;6.32;4.35;;;;;;;8.21;90.85;99483.19;5033773;28;20192;-68
2020/12/19 08:46:33;;;;;;;5.75;4.30;;;;;;;8.12;91.38;99487.19;5033865;28;20285;-68
2020/12/19 08:49:00;;;;;;;7.55;4.35;;;;;;;8.14;91.41;99484.44;5033837;28;20624;-68
2020/12/19 08:51:26;;;;;;;6.13;4.20;;;;;;;8.21;91.45;99491.22;5033965;28;20194;-67
2020/12/19 08:53:53;;;;;;;7.10;5.00;;;;;;;8.15;91.44;99478.97;5034077;28;20271;-67
2020/12/19 08:56:25;;;;;;;6.80;4.32;;;;;;;8.14;91.75;99482.63;5034218;28;20205;-69
2020/12/19 08:58:52;;;;;;;9.68;4.70;;;;;;;8.21;91.86;99487.66;5033533;28;20301;-68
2020/12/19 09:01:18;;;;;;;5.07;4.10;;;;;;;8.36;90.75;99497.63;5033485;28;20192;-67
2020/12/19 09:03:45;;;;;;;5.45;3.83;;;;;;;8.47;90.59;99491.75;5034076;28;20212;-68
2020/12/19 09:06:14;;;;;;;5.30;4.03;;;;;;;8.52;89.90;99495.94;5034086;28;20276;-68
2020/12/19 09:08:42;;;;;;;4.75;3.60;;;;;;;8.66;89.60;99502.38;5033978;28;20235;-68
2020/12/19 09:11:10;;;;;;;4.75;3.15;;;;;;;9.19;86.78;99496.00;5033988;28;20214;-68
2020/12/19 09:13:37;;;;;;;5.60;4.40;;;;;;;9.35;86.27;99493.34;5033580;28;20221;-68
2020/12/19 09:16:08;;;;;;;3.85;2.78;;;;;;;9.72;83.72;99494.88;5033373;28;20189;-69
2020/12/19 09:18:35;;;;;;;4.05;3.55;;;;;;;9.93;82.93;99502.69;5033348;28;20673;-68
2020/12/19 09:21:04;;;;;;;5.50;3.05;;;;;;;10.11;81.79;99500.75;5034094;28;20813;-68
2020/12/19 09:23:31;;;;;;;3.47;3.00;;;;;;;10.33;80.60;99503.94;5033868;28;20192;-68
2020/12/19 09:25:59;;;;;;;7.40;3.10;;;;;;;10.48;79.98;99502.19;5033200;28;20305;-68
2020/12/19 09:28:26;;;;;;;3.03;1.88;;;;;;;10.58;78.92;99492.63;5033291;28;20279;-68
2020/12/19 09:30:52;;;;;;;2.70;2.13;;;;;;;10.66;78.02;99491.28;5033705;28;20662;-68
2020/12/19 09:33:19;;;;;;;4.75;2.63;;;;;;;10.81;77.30;99495.75;5032831;28;20334;-67
2020/12/19 09:35:46;;;;;;;2.78;2.20;;;;;;;10.74;77.61;99492.56;5033773;28;20645;-68
2020/12/19 09:38:13;;;;;;;3.67;2.30;;;;;;;10.89;77.16;99495.28;5033163;28;20289;-68
2020/12/19 09:40:40;;;;;;;14.43;2.10;;;;;;;10.96;76.47;99502.88;5033421;28;20592;-68
2020/12/19 09:43:07;;;;;;;3.20;1.80;;;;;;;10.87;77.06;99499.88;5033229;28;20594;-68
2020/12/19 09:45:34;;;;;;;3.53;2.45;;;;;;;10.92;76.78;99513.94;5033494;28;20609;-69
2020/12/19 09:48:01;;;;;;;4.13;2.70;;;;;;;10.91;76.70;99507.69;5033350;28;20647;-67
2020/12/19 09:50:28;;;;;;;3.03;2.10;;;;;;;10.92;76.88;99504.03;5032968;28;20301;-68
2020/12/19 09:52:55;;;;;;;2.10;1.83;;;;;;;10.96;77.01;99502.00;5032937;28;20277;-68
2020/12/19 09:55:23;;;;;;;6.35;2.08;;;;;;;11.04;76.68;99500.59;5032751;28;20292;-68
2020/12/19 09:57:50;;;;;;;3.80;2.00;;;;;;;11.11;76.46;99502.91;5033221;28;20310;-68
2020/12/19 10:00:17;;;;;;;6.50;2.38;;;;;;;11.16;76.29;99501.66;5032172;28;20754;-68
2020/12/19 10:02:46;;;;;;;3.67;2.13;;;;;;;11.40;75.20;99491.16;5032739;28;20273;-68
2020/12/19 10:05:12;;;;;;;2.38;2.17;;;;;;;11.51;74.66;99500.38;5032892;28;20202;-68
2020/12/19 10:07:39;;;;;;;3.13;1.65;;;;;;;11.69;73.64;99501.94;5032501;28;20273;-68
2020/12/19 10:10:07;;;;;;;4.32;2.40;;;;;;;11.63;73.96;99491.53;5032758;28;20205;-68
2020/12/19 10:12:34;;;;;;;2.08;1.80;;;;;;;11.75;73.51;99492.56;5032396;28;20281;-69
2020/12/19 10:15:01;;;;;;;7.78;1.90;;;;;;;11.76;73.72;99481.69;5032701;28;20253;-69
2020/12/19 10:17:27;;;;;;;2.22;1.90;;;;;;;11.89;72.23;99479.06;5032609;28;20209;-68
2020/12/19 10:19:53;;;;;;;2.33;2.13;;;;;;;12.05;71.92;99471.72;5032415;28;20217;-69
2020/12/19 10:22:19;;;;;;;2.70;2.13;;;;;;;12.20;71.27;99486.00;5032043;28;20251;-69
2020/12/19 10:24:45;;;;;;;8.38;3.97;;;;;;;12.16;71.41;99467.44;5032462;28;20209;-68
2020/12/19 10:27:12;;;;;;;3.47;2.15;;;;;;;12.10;71.63;99480.38;5032588;28;20193;-68
2020/12/19 10:29:40;;;;;;;3.10;2.00;;;;;;;12.26;70.65;99480.22;5032462;28;20723;-68
2020/12/19 10:32:07;;;;;;;4.93;1.75;;;;;;;12.31;70.19;99478.06;5032097;28;20190;-68
2020/12/19 10:34:34;;;;;;;3.28;2.17;;;;;;;12.31;70.74;99474.50;5032238;28;20241;-69
2020/12/19 10:37:00;;;;;;;4.60;1.92;;;;;;;12.50;70.05;99469.59;5032466;28;20287;-68
2020/12/19 10:39:26;;;;;;;3.33;2.30;;;;;;;12.60;69.98;99461.72;5031760;28;20321;-68
2020/12/19 10:41:52;;;;;;;2.63;1.85;;;;;;;12.63;69.74;99468.75;5032040;28;20212;-68
2020/12/19 10:44:19;;;;;;;4.90;1.50;;;;;;;12.72;69.70;99460.00;5032314;28;20289;-68
2020/12/19 10:46:46;;;;;;;3.72;2.25;;;;;;;12.87;69.00;99461.66;5031861;28;20228;-68
2020/12/19 10:49:12;;;;;;;3.88;2.10;;;;;;;12.93;68.45;99454.94;5031808;28;20213;-68
2020/12/19 10:51:38;;;;;;;4.00;1.90;;;;;;;13.18;67.49;99458.63;5031863;28;20613;-68
2020/12/19 10:54:05;;;;;;;2.28;1.70;;;;;;;13.23;67.23;99451.03;5031696;28;20206;-69
2020/12/19 10:56:31;;;;;;;2.58;1.95;;;;;;;13.30;67.19;99450.53;5031029;28;20247;-68
2020/12/19 10:58:57;;;;;;;3.60;2.25;;;;;;;13.29;67.02;99443.38;5031543;28;20715;-68
2020/12/19 11:01:23;;;;;;;2.53;2.00;;;;;;;13.30;66.72;99431.59;5031860;28;20186;-68
2020/12/19 11:03:51;;;;;;;2.42;1.42;;;;;;;13.22;67.16;99435.78;5032110;28;20604;-68
2020/12/19 11:06:19;;;;;;;4.63;1.80;;;;;;;13.19;67.65;99430.63;5031967;28;20706;-68
2020/12/19 11:08:46;;;;;;;2.63;1.92;;;;;;;13.22;67.53;99425.84;5031784;28;20605;-69
2020/12/19 11:11:13;;;;;;;2.25;1.70;;;;;;;13.25;67.04;99435.56;5031872;28;20194;-68
2020/12/19 11:13:39;;;;;;;2.50;1.40;;;;;;;13.24;67.00;99426.59;5031587;28;20206;-69
2020/12/19 11:16:06;;;;;;;1.85;1.50;;;;;;;13.35;66.56;99415.03;5031359;28;20276;-70
2020/12/19 11:18:32;;;;;;;5.10;2.33;;;;;;;13.46;66.28;99420.53;5031918;28;20636;-69
2020/12/19 11:20:59;;;;;;;2.60;1.75;;;;;;;13.59;65.73;99416.91;5031817;28;20183;-69
2020/12/19 11:23:25;;;;;;;6.38;1.95;;;;;;;13.69;65.66;99409.88;5031560;28;20197;-69
2020/12/19 11:25:54;;;;;;;3.35;1.70;;;;;;;13.81;65.28;99405.38;5031697;28;20192;-68
2020/12/19 11:28:20;;;;;;;3.55;2.45;;;;;;;13.89;65.15;99408.38;5031107;28;20208;-69
2020/12/19 11:30:47;;;;;;;13.80;2.90;;;;;;;14.11;64.33;99404.91;5031627;28;20268;-69
2020/12/19 11:33:14;;;;;;;1.95;1.75;;;;;;;14.26;63.35;99397.47;5031291;28;20236;-69